Time;durP1;ratioP1;P1;durP2;ratioP2;P2;SDS_P1;SDS_P2;PMS_P1;PMS_P2;Temp;Humidity;BMP_temperature;BMP_pressure;BME280_temperature;BME280_humidity;BME280_pressure;Samples;Min_cycle;Max_cycle;Signal;HPM_P1;HPM_P2
2021/10/17 00:00:08;;;;;;;22.42;17.30;;;;;;;3.63;100.00;96139.88;1019303;29;20116;-71
2021/10/17 00:00:39;;;;;;;24.95;17.23;;;;;;;3.65;100.00;96143.03;1019416;29;20044;-69
2021/10/17 00:01:09;;;;;;;21.55;16.70;;;;;;;3.66;100.00;96147.25;1015185;29;20260;-69
2021/10/17 00:01:40;;;;;;;19.90;14.32;;;;;;;3.58;100.00;96137.09;1015077;29;20032;-68
2021/10/17 00:02:10;;;;;;;25.65;15.55;;;;;;;3.63;100.00;96147.66;1015370;29;20020;-67
2021/10/17 00:02:41;;;;;;;17.92;14.70;;;;;;;3.65;100.00;96153.44;1015371;29;20024;-69
2021/10/17 00:03:11;;;;;;;18.23;14.27;;;;;;;3.63;100.00;96147.66;1019201;29;20023;-68
2021/10/17 00:03:41;;;;;;;21.92;16.98;;;;;;;3.66;100.00;96144.66;1019402;28;20027;-68
2021/10/17 00:04:12;;;;;;;21.02;15.65;;;;;;;3.67;100.00;96146.25;1023096;28;20028;-69
2021/10/17 00:04:42;;;;;;;20.95;15.98;;;;;;;3.68;100.00;96151.22;1027542;28;20045;-69
2021/10/17 00:05:13;;;;;;;22.33;15.00;;;;;;;3.64;100.00;96141.47;1026911;28;20030;-68
2021/10/17 00:05:43;;;;;;;20.25;16.17;;;;;;;3.68;100.00;96153.00;1019280;29;20028;-69
2021/10/17 00:06:16;;;;;;;21.90;16.92;;;;;;;3.60;100.00;96146.28;1023203;29;20044;-69
2021/10/17 00:06:46;;;;;;;26.58;17.60;;;;;;;3.65;100.00;96148.25;1027850;28;20038;-69
2021/10/17 00:07:17;;;;;;;20.80;15.68;;;;;;;3.67;100.00;96159.22;1026846;28;20309;-68
2021/10/17 00:07:47;;;;;;;20.50;16.08;;;;;;;3.66;100.00;96155.84;1018548;29;20039;-69
2021/10/17 00:08:18;;;;;;;23.45;16.38;;;;;;;3.67;100.00;96161.81;1022899;29;20832;-69
2021/10/17 00:08:48;;;;;;;22.63;16.65;;;;;;;3.66;100.00;96162.81;1023456;28;20038;-69
2021/10/17 00:09:18;;;;;;;22.58;15.80;;;;;;;3.62;100.00;96156.44;1027134;28;20031;-69
2021/10/17 00:09:49;;;;;;;19.70;15.38;;;;;;;3.63;100.00;96156.25;1023060;28;20039;-68
2021/10/17 00:10:30;;;;;;;21.98;16.55;;;;;;;3.64;100.00;96162.22;1023291;29;20027;-68
2021/10/17 00:11:00;;;;;;;23.90;17.10;;;;;;;3.64;100.00;96162.22;1023035;29;20051;-68
2021/10/17 00:11:31;;;;;;;20.88;15.75;;;;;;;3.61;100.00;96163.44;1024643;28;20043;-69
2021/10/17 00:12:02;;;;;;;21.10;16.35;;;;;;;3.56;100.00;96159.88;1023164;29;20024;-70
2021/10/17 00:12:32;;;;;;;22.83;17.40;;;;;;;3.59;100.00;96165.44;1023146;28;20042;-69
2021/10/17 00:13:04;;;;;;;20.67;15.93;;;;;;;3.60;100.00;96174.81;1023436;29;20055;-68
2021/10/17 00:13:35;;;;;;;22.33;16.08;;;;;;;3.60;100.00;96176.63;1022636;29;20023;-69
2021/10/17 00:14:05;;;;;;;21.55;16.33;;;;;;;3.58;100.00;96163.06;1019448;29;20379;-69
2021/10/17 00:14:36;;;;;;;23.13;17.08;;;;;;;3.62;100.00;96172.81;1019389;29;20106;-70
2021/10/17 00:15:08;;;;;;;20.67;14.43;;;;;;;3.58;100.00;96169.03;1019252;29;20027;-68
2021/10/17 00:15:39;;;;;;;23.63;17.63;;;;;;;3.66;100.00;96176.59;1020354;28;20023;-69
2021/10/17 00:16:09;;;;;;;21.58;16.80;;;;;;;3.68;100.00;96177.16;1019977;29;20280;-69
2021/10/17 00:16:40;;;;;;;20.38;15.90;;;;;;;3.68;100.00;96173.78;1019606;29;20050;-68
2021/10/17 00:17:10;;;;;;;24.67;17.42;;;;;;;3.72;100.00;96180.13;1025336;28;20039;-68
2021/10/17 00:17:41;;;;;;;21.40;16.52;;;;;;;3.78;100.00;96189.69;1030631;28;20087;-68
2021/10/17 00:18:11;;;;;;;30.52;17.27;;;;;;;3.82;100.00;96180.47;1031178;28;20018;-68
2021/10/17 00:18:42;;;;;;;23.77;17.83;;;;;;;3.86;100.00;96186.88;1027176;28;20019;-69
2021/10/17 00:19:12;;;;;;;23.50;15.77;;;;;;;3.89;100.00;96186.44;1027007;28;20210;-69
2021/10/17 00:19:43;;;;;;;29.50;16.60;;;;;;;3.88;100.00;96177.03;1027346;28;20501;-68
2021/10/17 00:20:17;;;;;;;24.88;17.48;;;;;;;3.95;100.00;96175.19;1018979;29;20402;-70
2021/10/17 00:20:48;;;;;;;24.98;17.54;;;;;;;4.00;100.00;96182.38;1023200;29;20172;-68
2021/10/17 00:21:18;;;;;;;22.40;17.42;;;;;;;4.04;100.00;96183.53;1027174;28;20031;-68
2021/10/17 00:21:49;;;;;;;21.40;16.50;;;;;;;4.04;100.00;96178.34;1028408;28;20035;-68
2021/10/17 00:22:19;;;;;;;19.85;14.63;;;;;;;4.08;100.00;96179.50;1035203;28;20029;-69
2021/10/17 00:22:50;;;;;;;19.55;15.85;;;;;;;4.06;100.00;96175.53;1031108;28;20034;-70
2021/10/17 00:23:20;;;;;;;22.75;15.68;;;;;;;4.11;100.00;96178.31;1031117;28;20030;-68
2021/10/17 00:23:51;;;;;;;18.73;14.45;;;;;;;4.14;100.00;96178.69;1030818;28;20049;-68
2021/10/17 00:24:21;;;;;;;22.48;14.88;;;;;;;4.16;100.00;96179.28;1026937;28;20023;-69
2021/10/17 00:24:52;;;;;;;19.27;14.90;;;;;;;4.14;100.00;96173.50;1026902;28;20022;-69
2021/10/17 00:25:23;;;;;;;18.83;15.05;;;;;;;4.21;100.00;96189.03;1015357;29;20027;-69
2021/10/17 00:25:53;;;;;;;21.08;15.50;;;;;;;4.25;100.00;96179.78;1015127;29;20020;-69
2021/10/17 00:26:24;;;;;;;21.85;14.75;;;;;;;4.25;100.00;96180.59;1011401;29;20265;-68
2021/10/17 00:26:55;;;;;;;20.98;14.10;;;;;;;4.28;100.00;96174.19;1023192;28;20130;-67
2021/10/17 00:27:25;;;;;;;18.48;14.18;;;;;;;4.29;100.00;96175.75;1023356;28;20016;-69
2021/10/17 00:27:55;;;;;;;19.52;15.25;;;;;;;4.13;100.00;96150.34;1026412;28;20041;-70
2021/10/17 00:28:26;;;;;;;22.85;13.82;;;;;;;4.33;100.00;96174.34;1026877;28;20014;-68
2021/10/17 00:28:56;;;;;;;20.05;13.20;;;;;;;4.34;100.00;96175.16;1019108;29;20011;-69
2021/10/17 00:29:27;;;;;;;18.20;14.10;;;;;;;4.33;100.00;96182.16;1023240;29;20031;-70
2021/10/17 00:29:57;;;;;;;16.92;13.63;;;;;;;4.33;100.00;96171.75;1018971;29;20041;-69
2021/10/17 00:30:28;;;;;;;20.73;15.48;;;;;;;4.36;100.00;96173.94;1023071;29;20106;-68
2021/10/17 00:30:58;;;;;;;19.02;14.50;;;;;;;4.36;100.00;96170.50;1023039;28;20067;-69
2021/10/17 00:31:29;;;;;;;20.85;14.57;;;;;;;4.35;100.00;96169.72;1022904;29;20098;-68
2021/10/17 00:32:00;;;;;;;18.70;13.90;;;;;;;4.35;100.00;96174.13;1019438;29;20425;-69
2021/10/17 00:32:31;;;;;;;16.38;13.55;;;;;;;4.37;100.00;96178.13;1018989;29;20576;-69
2021/10/17 00:33:02;;;;;;;19.15;14.57;;;;;;;4.33;100.00;96171.75;1019270;29;20284;-69
2021/10/17 00:33:32;;;;;;;23.52;14.45;;;;;;;4.35;100.00;96172.31;1022923;28;20019;-69
2021/10/17 00:34:02;;;;;;;18.52;13.85;;;;;;;4.35;100.00;96174.13;1022255;29;20035;-68
2021/10/17 00:34:33;;;;;;;18.67;13.93;;;;;;;4.30;100.00;96166.97;1022547;29;20030;-70
2021/10/17 00:35:05;;;;;;;20.40;14.73;;;;;;;4.32;100.00;96169.34;1026964;28;20042;-68
2021/10/17 00:35:36;;;;;;;18.52;13.95;;;;;;;4.30;100.00;96169.59;1023002;28;20031;-69
2021/10/17 00:36:06;;;;;;;17.98;14.65;;;;;;;4.32;100.00;96175.34;1015448;29;20766;-68
2021/10/17 00:36:37;;;;;;;19.27;14.88;;;;;;;4.33;100.00;96176.94;1018991;29;20131;-68
2021/10/17 00:37:07;;;;;;;17.90;14.27;;;;;;;4.29;100.00;96170.56;1015406;29;20024;-69
2021/10/17 00:37:38;;;;;;;18.92;14.90;;;;;;;4.24;100.00;96162.63;1023294;28;20023;-69
2021/10/17 00:38:08;;;;;;;22.27;14.43;;;;;;;4.31;100.00;96175.56;1026546;28;20514;-69
2021/10/17 00:38:39;;;;;;;20.35;14.90;;;;;;;4.25;100.00;96172.00;1024414;28;20064;-66
2021/10/17 00:39:10;;;;;;;23.30;14.13;;;;;;;4.29;100.00;96172.38;1029169;28;20551;-67
2021/10/17 00:39:40;;;;;;;19.15;14.27;;;;;;;4.22;100.00;96164.63;1023736;28;20035;-69
2021/10/17 00:40:12;;;;;;;21.23;14.02;;;;;;;4.26;100.00;96186.59;1019258;29;20027;-69
2021/10/17 00:40:43;;;;;;;19.83;14.52;;;;;;;4.26;100.00;96181.41;1015620;29;20032;-69
2021/10/17 00:41:13;;;;;;;21.33;15.65;;;;;;;4.24;100.00;96180.81;1019982;28;20294;-67
2021/10/17 00:41:45;;;;;;;16.38;14.35;;;;;;;4.17;100.00;96174.88;1021858;28;20122;-69
2021/10/17 00:42:15;;;;;;;20.38;14.07;;;;;;;4.22;100.00;96180.22;1018939;29;20808;-69
2021/10/17 00:42:46;;;;;;;17.85;13.18;;;;;;;4.22;100.00;96180.22;1018998;29;20279;-69
2021/10/17 00:43:17;;;;;;;19.25;14.68;;;;;;;4.20;100.00;96177.06;1022954;29;20027;-69
2021/10/17 00:43:47;;;;;;;19.02;13.80;;;;;;;4.25;100.00;96190.19;1027004;28;20373;-69
2021/10/17 00:44:19;;;;;;;18.83;13.63;;;;;;;4.24;100.00;96188.59;1025948;28;20165;-71
2021/10/17 00:45:03;;;;;;;19.48;14.25;;;;;;;4.18;100.00;96184.25;1025429;28;20575;-68
2021/10/17 00:45:33;;;;;;;17.05;13.18;;;;;;;4.23;100.00;96187.03;1028036;28;20270;-69
2021/10/17 00:46:04;;;;;;;19.52;13.63;;;;;;;4.25;100.00;96190.19;1027048;28;20262;-65
2021/10/17 00:46:37;;;;;;;17.80;13.05;;;;;;;4.24;100.00;96186.78;1022952;29;20027;-69
2021/10/17 00:47:07;;;;;;;19.58;15.52;;;;;;;4.25;100.00;96182.41;1027110;28;20054;-67
2021/10/17 00:47:37;;;;;;;17.73;14.20;;;;;;;4.22;100.00;96177.63;1027417;28;20276;-69
2021/10/17 00:48:08;;;;;;;20.55;13.80;;;;;;;4.24;100.00;96183.41;1023016;28;20473;-69
2021/10/17 00:48:38;;;;;;;17.95;13.45;;;;;;;4.23;100.00;96182.63;1026677;28;20389;-69
2021/10/17 00:49:09;;;;;;;16.55;13.48;;;;;;;4.24;100.00;96183.41;1027001;28;20030;-69
2021/10/17 00:49:39;;;;;;;17.27;14.38;;;;;;;4.23;100.00;96184.44;1025778;28;20450;-71
2021/10/17 00:50:10;;;;;;;18.48;13.77;;;;;;;4.18;100.00;96173.84;1026504;28;20401;-67
2021/10/17 00:50:41;;;;;;;17.98;13.23;;;;;;;4.22;100.00;96182.81;1025776;28;20031;-68
2021/10/17 00:51:11;;;;;;;16.60;13.18;;;;;;;4.22;100.00;96186.19;1026907;28;20031;-67
2021/10/17 00:51:42;;;;;;;17.25;13.30;;;;;;;4.24;100.00;96183.41;1021747;28;20046;-66
2021/10/17 00:52:13;;;;;;;21.88;13.60;;;;;;;4.18;100.00;96179.06;1027165;28;20045;-67
2021/10/17 00:52:44;;;;;;;16.23;12.68;;;;;;;4.22;100.00;96181.00;1031611;28;20285;-68
2021/10/17 00:53:17;;;;;;;17.73;14.02;;;;;;;4.23;100.00;96179.22;1027116;28;20046;-68
2021/10/17 00:53:48;;;;;;;18.52;13.77;;;;;;;4.20;100.00;96177.84;1023903;28;20038;-69
2021/10/17 00:54:18;;;;;;;22.40;14.02;;;;;;;4.20;100.00;96177.84;1020324;29;20257;-65
2021/10/17 00:54:49;;;;;;;19.33;14.20;;;;;;;4.17;100.00;96177.47;1019876;28;20679;-65
2021/10/17 00:55:20;;;;;;;18.83;14.85;;;;;;;4.15;100.00;96172.47;1029062;28;20022;-69
2021/10/17 00:55:50;;;;;;;19.63;13.95;;;;;;;4.17;100.00;96177.47;1023243;29;20031;-67
2021/10/17 00:56:21;;;;;;;18.95;14.70;;;;;;;4.15;100.00;96175.06;1027283;28;20023;-65
2021/10/17 00:56:51;;;;;;;17.63;14.18;;;;;;;4.07;100.00;96167.56;1023232;29;20793;-67
2021/10/17 00:57:24;;;;;;;18.55;14.73;;;;;;;4.14;100.00;96178.69;1018755;28;20049;-68
2021/10/17 00:57:55;;;;;;;19.60;14.45;;;;;;;4.13;100.00;96176.31;1022946;28;20051;-66
2021/10/17 00:58:25;;;;;;;19.08;14.88;;;;;;;4.13;100.00;96173.72;1020362;28;20286;-69
2021/10/17 00:58:56;;;;;;;21.17;14.10;;;;;;;4.12;100.00;96183.28;1019351;29;20394;-68
2021/10/17 00:59:26;;;;;;;17.55;13.88;;;;;;;4.11;100.00;96175.72;1024480;28;20026;-69
2021/10/17 00:59:57;;;;;;;19.15;15.05;;;;;;;4.10;100.00;96174.13;1022878;28;20382;-69
2021/10/17 01:00:27;;;;;;;20.33;14.73;;;;;;;3.97;100.00;96152.44;1025063;28;20023;-65
2021/10/17 01:00:58;;;;;;;20.58;14.40;;;;;;;4.03;100.00;96166.38;1022212;29;20034;-67
2021/10/17 01:01:28;;;;;;;21.38;14.43;;;;;;;4.08;100.00;96173.53;1018920;29;20023;-67
2021/10/17 01:01:59;;;;;;;19.60;14.85;;;;;;;4.00;100.00;96161.63;1019254;28;20043;-68
2021/10/17 01:02:29;;;;;;;20.02;15.23;;;;;;;4.05;100.00;96172.16;1027125;28;20030;-68
2021/10/17 01:03:00;;;;;;;19.25;14.63;;;;;;;4.05;100.00;96172.16;1034517;28;20499;-66
2021/10/17 01:03:30;;;;;;;21.83;15.48;;;;;;;4.03;100.00;96171.56;1033668;28;20098;-68
2021/10/17 01:04:01;;;;;;;15.95;13.68;;;;;;;4.02;100.00;96169.97;1026811;28;20026;-69
2021/10/17 01:04:32;;;;;;;19.98;15.25;;;;;;;4.00;100.00;96166.81;1022353;28;20031;-65
2021/10/17 01:05:03;;;;;;;16.98;13.20;;;;;;;4.00;100.00;96167.59;1026777;28;20073;-68
2021/10/17 01:05:34;;;;;;;21.13;14.65;;;;;;;3.94;100.00;96154.66;1029952;28;20771;-69
2021/10/17 01:06:08;;;;;;;19.73;14.48;;;;;;;4.00;100.00;96172.00;1022041;28;20327;-67
2021/10/17 01:06:39;;;;;;;19.33;14.15;;;;;;;3.96;100.00;96169.03;1019532;28;20634;-69
2021/10/17 01:07:10;;;;;;;21.42;14.80;;;;;;;3.85;100.00;96148.91;1023597;28;20269;-71
2021/10/17 01:07:40;;;;;;;20.90;15.63;;;;;;;3.94;100.00;96167.63;1027563;28;20046;-68
2021/10/17 01:08:11;;;;;;;23.50;14.88;;;;;;;3.93;100.00;96166.84;1025412;28;20086;-68
2021/10/17 01:08:42;;;;;;;19.38;14.77;;;;;;;3.91;100.00;96168.84;1031411;28;20030;-68
2021/10/17 01:09:12;;;;;;;19.80;15.30;;;;;;;3.90;100.00;96166.47;1031201;28;20058;-69
2021/10/17 01:09:43;;;;;;;26.17;15.65;;;;;;;3.88;100.00;96158.88;1029569;28;20282;-68
2021/10/17 01:10:14;;;;;;;19.55;15.63;;;;;;;3.77;100.00;96151.78;1035135;28;20036;-68
2021/10/17 01:10:44;;;;;;;22.67;16.48;;;;;;;3.80;100.00;96158.34;1024265;28;20527;-69
2021/10/17 01:11:15;;;;;;;19.63;14.40;;;;;;;3.82;100.00;96161.50;1016352;29;20275;-69
2021/10/17 01:11:46;;;;;;;22.33;16.25;;;;;;;3.80;100.00;96164.34;1019035;29;20035;-70
2021/10/17 01:12:17;;;;;;;30.25;16.08;;;;;;;3.78;100.00;96158.53;1022684;29;20035;-67
2021/10/17 01:12:47;;;;;;;23.65;15.85;;;;;;;3.78;100.00;96166.31;1019211;29;20275;-68
2021/10/17 01:13:18;;;;;;;21.00;14.82;;;;;;;3.77;100.00;96162.16;1022835;29;20035;-69
2021/10/17 01:13:49;;;;;;;24.60;15.50;;;;;;;3.76;100.00;96156.16;1022725;28;20676;-67
2021/10/17 01:14:20;;;;;;;26.65;15.27;;;;;;;3.74;100.00;96163.34;1027285;28;20269;-68
2021/10/17 01:14:50;;;;;;;20.70;15.70;;;;;;;3.74;100.00;96157.38;1026769;28;20031;-67
2021/10/17 01:15:21;;;;;;;24.17;15.63;;;;;;;3.74;100.00;96162.56;1018693;29;20303;-69
2021/10/17 01:15:55;;;;;;;21.08;16.60;;;;;;;3.73;100.00;96161.78;1026435;28;20031;-68
2021/10/17 01:16:25;;;;;;;23.65;15.77;;;;;;;3.70;100.00;96158.81;1019670;29;20547;-69
2021/10/17 01:16:56;;;;;;;20.17;15.20;;;;;;;3.66;100.00;96150.63;1020422;28;20275;-70
2021/10/17 01:17:26;;;;;;;20.58;15.48;;;;;;;3.68;100.00;96153.81;1019206;29;20557;-69
2021/10/17 01:17:57;;;;;;;18.60;14.68;;;;;;;3.67;100.00;96159.22;1018589;28;20676;-69
2021/10/17 01:18:28;;;;;;;18.75;15.13;;;;;;;3.67;100.00;96154.03;1019150;29;20100;-68
2021/10/17 01:18:58;;;;;;;19.83;15.48;;;;;;;3.66;100.00;96149.84;1019078;28;20023;-69
2021/10/17 01:19:29;;;;;;;21.40;15.57;;;;;;;3.66;100.00;96155.84;1026503;28;20038;-69
2021/10/17 01:19:59;;;;;;;19.17;14.82;;;;;;;3.65;100.00;96156.03;1019037;29;20544;-68
2021/10/17 01:20:30;;;;;;;22.45;16.10;;;;;;;3.61;100.00;96157.44;1022515;29;20113;-70
2021/10/17 01:21:01;;;;;;;25.33;16.10;;;;;;;3.62;100.00;96157.25;1015354;29;20114;-70
2021/10/17 01:21:32;;;;;;;19.55;15.50;;;;;;;3.62;100.00;96153.84;1022213;29;20563;-69
2021/10/17 01:22:03;;;;;;;18.63;15.02;;;;;;;3.54;100.00;96153.09;1022728;29;20024;-70
2021/10/17 01:22:34;;;;;;;21.52;15.64;;;;;;;3.54;100.00;96150.50;1015194;29;20363;-69
2021/10/17 01:23:04;;;;;;;20.70;14.75;;;;;;;3.59;100.00;96159.44;1023040;29;20377;-69
2021/10/17 01:23:34;;;;;;;20.92;15.90;;;;;;;3.50;100.00;96151.91;1022831;29;20032;-70
2021/10/17 01:24:05;;;;;;;19.40;13.68;;;;;;;3.54;100.00;96157.47;1023139;29;20019;-69
2021/10/17 01:24:36;;;;;;;21.67;14.60;;;;;;;3.53;100.00;96151.50;1022444;28;20079;-69
2021/10/17 01:25:07;;;;;;;22.35;15.27;;;;;;;3.53;100.00;96161.88;1023129;29;20495;-70
2021/10/17 01:25:37;;;;;;;16.70;14.40;;;;;;;3.46;100.00;96144.75;1022966;29;20027;-69
2021/10/17 01:26:10;;;;;;;26.70;14.40;;;;;;;3.51;100.00;96156.09;1031075;28;20257;-69
2021/10/17 01:26:41;;;;;;;26.28;15.18;;;;;;;3.47;100.00;96147.13;1026946;28;20027;-69
2021/10/17 01:27:11;;;;;;;21.00;15.65;;;;;;;3.44;100.00;96147.56;1022954;29;20031;-68
2021/10/17 01:27:42;;;;;;;27.40;13.98;;;;;;;3.37;100.00;96136.41;1022326;29;20034;-68
2021/10/17 01:28:12;;;;;;;22.80;14.07;;;;;;;3.45;100.00;96146.53;1019077;29;20065;-69
2021/10/17 01:28:43;;;;;;;23.35;14.48;;;;;;;3.44;100.00;96157.91;1022949;28;20043;-69
2021/10/17 01:29:14;;;;;;;25.05;16.00;;;;;;;3.36;100.00;96139.22;1027203;28;20125;-69
2021/10/17 01:29:47;;;;;;;22.45;15.23;;;;;;;3.40;100.00;96151.56;1027072;28;20030;-69
2021/10/17 01:30:17;;;;;;;24.16;16.26;;;;;;;3.33;100.00;96147.41;1031086;28;20027;-68
2021/10/17 01:30:51;;;;;;;22.98;15.70;;;;;;;3.36;100.00;96144.41;1023001;28;20031;-69
2021/10/17 01:31:52;;;;;;;20.52;14.56;;;;;;;3.26;100.00;96144.84;1015138;29;20426;-68
2021/10/17 01:32:22;;;;;;;24.27;15.38;;;;;;;3.32;100.00;96154.41;1019107;29;20036;-69
2021/10/17 01:32:53;;;;;;;25.48;15.60;;;;;;;3.28;100.00;96153.22;1022324;29;20032;-69
2021/10/17 01:33:24;;;;;;;25.25;14.85;;;;;;;3.29;100.00;96157.41;1015535;29;20029;-69
2021/10/17 01:33:55;;;;;;;21.08;15.30;;;;;;;3.27;100.00;96156.81;1026880;28;20026;-69
2021/10/17 01:34:25;;;;;;;20.52;15.85;;;;;;;3.25;100.00;96154.44;1030943;28;20034;-69
2021/10/17 01:34:56;;;;;;;20.10;14.73;;;;;;;3.25;100.00;96148.44;1018995;29;20287;-70
2021/10/17 01:35:26;;;;;;;19.20;14.70;;;;;;;3.20;100.00;96149.06;1023082;29;20091;-69
2021/10/17 01:35:57;;;;;;;18.42;14.77;;;;;;;3.22;100.00;96154.84;1022796;29;20027;-68
2021/10/17 01:36:28;;;;;;;18.67;14.88;;;;;;;3.22;100.00;96148.84;1027023;28;20077;-69
2021/10/17 01:36:58;;;;;;;25.77;15.88;;;;;;;3.22;100.00;96154.03;1026805;28;20711;-70
2021/10/17 01:37:29;;;;;;;24.08;15.02;;;;;;;3.20;100.00;96146.47;1031173;28;20030;-70
2021/10/17 01:37:59;;;;;;;19.23;15.23;;;;;;;3.19;100.00;96144.88;1026498;28;20023;-69
2021/10/17 01:38:30;;;;;;;22.13;15.27;;;;;;;3.18;100.00;96145.06;1015145;29;20028;-69
2021/10/17 01:39:01;;;;;;;20.48;15.02;;;;;;;3.11;100.00;96131.34;1027082;28;20035;-69
2021/10/17 01:39:31;;;;;;;20.65;15.75;;;;;;;3.16;100.00;96142.69;1018861;29;20055;-69
2021/10/17 01:40:02;;;;;;;20.98;15.32;;;;;;;3.16;100.00;96150.47;1019017;29;20490;-69
2021/10/17 01:40:34;;;;;;;20.02;15.48;;;;;;;3.15;100.00;96148.06;1022826;29;20020;-69
2021/10/17 01:41:04;;;;;;;19.58;15.04;;;;;;;3.14;100.00;96141.31;1030730;28;20404;-68
2021/10/17 01:41:35;;;;;;;20.77;15.07;;;;;;;3.16;100.00;96149.69;1026047;28;20019;-70
2021/10/17 01:42:06;;;;;;;20.25;15.60;;;;;;;3.14;100.00;96139.50;1022809;29;20069;-68
2021/10/17 01:42:36;;;;;;;18.40;13.82;;;;;;;3.16;100.00;96141.91;1026891;28;20018;-69
2021/10/17 01:43:07;;;;;;;22.52;14.55;;;;;;;3.13;100.00;96140.50;1019103;29;20126;-69
2021/10/17 01:43:37;;;;;;;24.23;16.08;;;;;;;3.15;100.00;96145.47;1022857;29;20138;-68
2021/10/17 01:44:10;;;;;;;21.17;15.40;;;;;;;3.15;100.00;96142.88;1022207;29;20031;-69
2021/10/17 01:44:41;;;;;;;18.74;15.16;;;;;;;2.96;100.00;96119.44;1016626;29;20032;-69
2021/10/17 01:45:11;;;;;;;19.05;15.30;;;;;;;3.11;100.00;96139.13;1024524;28;20037;-69
2021/10/17 01:45:42;;;;;;;22.38;15.18;;;;;;;3.20;100.00;96145.66;1022760;29;20027;-69
2021/10/17 01:46:13;;;;;;;24.15;16.23;;;;;;;3.12;100.00;96130.34;1030421;28;20034;-70
2021/10/17 01:46:44;;;;;;;20.42;14.35;;;;;;;3.21;100.00;96147.25;1026712;28;20468;-68
2021/10/17 01:47:14;;;;;;;21.08;15.57;;;;;;;3.22;100.00;96136.69;1014663;29;20039;-69
2021/10/17 01:47:52;;;;;;;19.90;16.02;;;;;;;3.25;100.00;96141.47;1017854;29;20044;-69
2021/10/17 01:48:23;;;;;;;21.12;16.46;;;;;;;3.24;100.00;96142.44;1030539;28;20034;-69
2021/10/17 01:48:53;;;;;;;22.92;16.95;;;;;;;3.30;100.00;96148.63;1014820;29;20032;-68
2021/10/17 01:49:24;;;;;;;27.83;17.27;;;;;;;3.24;100.00;96142.44;1018647;29;20626;-68
2021/10/17 01:49:54;;;;;;;23.65;15.90;;;;;;;3.29;100.00;96149.63;1026660;28;20110;-70
2021/10/17 01:50:25;;;;;;;21.60;16.38;;;;;;;3.23;100.00;96129.72;1022429;29;20031;-69
2021/10/17 01:50:56;;;;;;;22.08;16.20;;;;;;;3.29;100.00;96139.25;1018668;29;20032;-69
2021/10/17 01:51:26;;;;;;;25.08;16.73;;;;;;;3.30;100.00;96146.03;1018721;29;20078;-69
2021/10/17 01:51:57;;;;;;;21.67;15.55;;;;;;;3.29;100.00;96144.44;1022734;29;20027;-68
2021/10/17 01:52:27;;;;;;;22.30;15.57;;;;;;;3.24;100.00;96146.84;1019143;29;20438;-70
2021/10/17 01:52:58;;;;;;;26.95;15.35;;;;;;;3.27;100.00;96144.63;1022613;29;20389;-68
2021/10/17 01:53:29;;;;;;;21.42;15.57;;;;;;;3.26;100.00;96143.06;1018591;29;20497;-67
2021/10/17 01:54:00;;;;;;;26.82;15.30;;;;;;;3.25;100.00;96148.44;1018930;29;20437;-68
2021/10/17 01:54:31;;;;;;;21.92;15.55;;;;;;;3.24;100.00;96137.25;1030264;28;20042;-68
2021/10/17 01:55:01;;;;;;;25.55;16.00;;;;;;;3.25;100.00;96138.88;1030551;28;20034;-68
2021/10/17 01:55:32;;;;;;;24.65;18.05;;;;;;;3.21;100.00;96142.06;1026640;28;20053;-68
2021/10/17 01:56:02;;;;;;;26.15;18.85;;;;;;;3.15;100.00;96132.50;1024850;28;20026;-69
2021/10/17 01:56:33;;;;;;;27.17;17.83;;;;;;;3.18;100.00;96142.47;1022710;29;20031;-68
2021/10/17 01:57:03;;;;;;;27.15;15.10;;;;;;;3.16;100.00;96141.91;1018907;29;20089;-68
2021/10/17 01:57:34;;;;;;;30.90;15.75;;;;;;;3.15;100.00;96142.88;1022563;29;20390;-69
2021/10/17 01:58:05;;;;;;;27.65;14.95;;;;;;;3.14;100.00;96136.13;1021843;29;20024;-68
2021/10/17 01:58:35;;;;;;;21.38;16.00;;;;;;;3.13;100.00;96139.72;1018629;29;20039;-69
2021/10/17 01:59:06;;;;;;;24.10;15.10;;;;;;;3.03;100.00;96127.97;1026454;28;20039;-68
2021/10/17 01:59:36;;;;;;;27.00;16.15;;;;;;;3.03;100.00;96129.78;1026789;28;20023;-69
2021/10/17 02:00:07;;;;;;;22.17;15.45;;;;;;;3.06;100.00;96143.13;1022455;29;20032;-68
2021/10/17 02:00:37;;;;;;;23.65;15.15;;;;;;;3.06;100.00;96139.75;1022966;29;20023;-70
2021/10/17 02:01:08;;;;;;;24.75;14.85;;;;;;;3.03;100.00;96138.34;1018999;29;20019;-68
2021/10/17 02:01:38;;;;;;;30.45;15.23;;;;;;;2.94;100.00;96124.00;1022646;28;20071;-68
2021/10/17 02:02:09;;;;;;;21.98;14.32;;;;;;;3.01;100.00;96142.94;1026783;28;20155;-68
2021/10/17 02:02:40;;;;;;;24.45;14.35;;;;;;;2.98;100.00;96135.56;1022755;28;20034;-68
2021/10/17 02:03:10;;;;;;;20.67;14.30;;;;;;;2.91;100.00;96132.19;1026677;28;20129;-68
2021/10/17 02:03:41;;;;;;;17.95;13.10;;;;;;;3.00;100.00;96136.16;1022897;29;20031;-68
2021/10/17 02:04:11;;;;;;;20.08;14.13;;;;;;;2.99;100.00;96134.56;1030499;28;20026;-68
2021/10/17 02:04:42;;;;;;;17.35;13.23;;;;;;;2.95;100.00;96130.81;1026671;28;20073;-69
2021/10/17 02:05:12;;;;;;;20.55;13.30;;;;;;;2.99;100.00;96134.56;1030945;28;20027;-68
2021/10/17 02:05:43;;;;;;;16.90;13.00;;;;;;;2.95;100.00;96132.59;1030525;28;20038;-69
2021/10/17 02:06:13;;;;;;;20.85;13.35;;;;;;;2.98;100.00;96134.78;1026768;28;20026;-68
2021/10/17 02:06:43;;;;;;;15.60;12.77;;;;;;;2.95;100.00;96133.41;1030534;28;20054;-70
2021/10/17 02:07:14;;;;;;;18.20;13.00;;;;;;;2.98;100.00;96140.75;1022771;29;20035;-68
2021/10/17 02:07:44;;;;;;;20.27;14.32;;;;;;;2.95;100.00;96137.75;1026033;28;20038;-68
2021/10/17 02:08:18;;;;;;;18.70;13.85;;;;;;;3.00;100.00;96138.75;1022463;29;20026;-68
2021/10/17 02:08:48;;;;;;;17.58;13.64;;;;;;;3.00;100.00;96136.16;1022763;29;20081;-66
2021/10/17 02:09:19;;;;;;;18.83;13.32;;;;;;;2.98;100.00;96138.16;1018885;29;20589;-67
2021/10/17 02:09:49;;;;;;;21.40;14.10;;;;;;;2.96;100.00;96137.56;1018725;29;20144;-69
2021/10/17 02:10:20;;;;;;;21.63;15.55;;;;;;;2.96;100.00;96132.41;1022217;28;20032;-69
2021/10/17 02:10:50;;;;;;;22.42;16.02;;;;;;;2.92;100.00;96133.81;1022643;28;20032;-68
2021/10/17 02:11:21;;;;;;;24.60;17.38;;;;;;;2.89;100.00;96134.22;1018859;29;20102;-68
2021/10/17 02:11:51;;;;;;;25.17;17.30;;;;;;;2.90;100.00;96130.63;1015063;29;20032;-67
2021/10/17 02:12:26;;;;;;;23.13;17.02;;;;;;;2.85;100.00;96125.25;1014765;29;20054;-69
2021/10/17 02:12:56;;;;;;;22.32;16.40;;;;;;;2.85;100.00;96133.03;1022621;28;20023;-70
2021/10/17 02:13:27;;;;;;;22.52;16.17;;;;;;;2.78;100.00;96124.47;1026616;28;20087;-69
2021/10/17 02:13:57;;;;;;;28.48;17.77;;;;;;;2.81;100.00;96135.22;1022384;29;20038;-68
2021/10/17 02:14:28;;;;;;;23.40;17.98;;;;;;;2.75;100.00;96124.88;1022798;29;20079;-68
2021/10/17 02:14:59;;;;;;;21.05;14.57;;;;;;;2.74;100.00;96120.69;1021553;29;20039;-66
2021/10/17 02:15:30;;;;;;;21.78;15.66;;;;;;;2.76;100.00;96129.84;1014394;29;20035;-69
2021/10/17 02:16:00;;;;;;;22.17;16.30;;;;;;;2.76;100.00;96131.66;1018959;29;20031;-68
2021/10/17 02:16:31;;;;;;;19.65;15.57;;;;;;;2.76;100.00;96134.25;1022431;29;20616;-69
2021/10/17 02:17:05;;;;;;;17.88;13.10;;;;;;;2.67;100.00;96114.72;1022804;29;20023;-69
2021/10/17 02:17:35;;;;;;;16.80;12.94;;;;;;;2.74;100.00;96137.03;1026529;28;20068;-68
2021/10/17 02:18:06;;;;;;;21.08;15.10;;;;;;;2.69;100.00;96128.28;1029709;28;20431;-69
2021/10/17 02:18:36;;;;;;;19.45;15.07;;;;;;;2.72;100.00;96133.06;1022392;29;20390;-68
2021/10/17 02:19:07;;;;;;;22.63;15.88;;;;;;;2.66;100.00;96128.69;1022636;29;20082;-67
2021/10/17 02:19:40;;;;;;;22.34;15.36;;;;;;;2.70;100.00;96135.84;1022666;29;20051;-68
2021/10/17 02:20:11;;;;;;;21.17;14.52;;;;;;;2.71;100.00;96132.25;1022627;29;20497;-68
2021/10/17 02:20:42;;;;;;;26.25;14.60;;;;;;;2.70;100.00;96127.28;1026455;28;20029;-68
2021/10/17 02:21:12;;;;;;;22.13;14.93;;;;;;;2.63;100.00;96129.09;1022401;29;20132;-69
2021/10/17 02:21:43;;;;;;;16.60;13.27;;;;;;;2.65;100.00;96121.91;1022463;29;20078;-69
2021/10/17 02:22:13;;;;;;;16.30;13.18;;;;;;;2.71;100.00;96134.03;1026364;28;20082;-68